createdAt,value
2018-02-08T00:00:11.921Z,26.77
2018-02-08T00:02:42.557Z,31.93
2018-02-08T00:05:13.549Z,44.57
2018-02-08T00:07:44.105Z,32.97
2018-02-08T00:10:14.586Z,25.37
2018-02-08T00:12:45.037Z,32.40
2018-02-08T00:15:15.538Z,31.67
2018-02-08T00:17:47.270Z,31.20
2018-02-08T00:20:18.062Z,27.47
2018-02-08T00:22:49.371Z,30.03
2018-02-08T00:25:20.646Z,24.60
2018-02-08T00:27:51.119Z,26.60
2018-02-08T00:30:22.144Z,26.47
2018-02-08T00:32:52.778Z,37.13
2018-02-08T00:35:24.058Z,23.10
2018-02-08T00:37:54.581Z,27.27
2018-02-08T00:40:25.024Z,23.93
2018-02-08T00:42:56.716Z,25.87
2018-02-08T00:45:28.033Z,27.17
2018-02-08T00:47:58.866Z,23.03
2018-02-08T00:50:29.343Z,22.50
2018-02-08T00:52:59.873Z,22.77
2018-02-08T00:55:30.346Z,21.93
2018-02-08T00:58:00.811Z,33.77
2018-02-08T01:00:32.437Z,23.03
2018-02-08T01:03:02.946Z,31.87
2018-02-08T01:05:33.687Z,30.47
2018-02-08T01:08:04.170Z,23.60
2018-02-08T01:10:35.452Z,28.50
2018-02-08T01:13:05.958Z,28.77
2018-02-08T01:15:37.333Z,25.33
2018-02-08T01:18:08.201Z,23.60
2018-02-08T01:20:38.713Z,36.00
2018-02-08T01:23:09.201Z,26.77
2018-02-08T01:25:39.687Z,30.80
2018-02-08T01:28:10.110Z,29.90
2018-02-08T01:30:41.010Z,28.60
2018-02-08T01:33:11.491Z,29.53
2018-02-08T01:35:43.045Z,19.50
2018-02-08T01:38:14.932Z,34.53
2018-02-08T01:40:45.377Z,33.87
2018-02-08T01:43:15.866Z,24.30
2018-02-08T01:45:47.142Z,30.17
2018-02-08T01:48:17.889Z,23.30
2018-02-08T01:50:48.412Z,19.93
2018-02-08T01:53:19.460Z,33.43
2018-02-08T01:55:49.948Z,31.80
2018-02-08T01:58:21.222Z,20.67
2018-02-08T02:00:51.746Z,20.50
2018-02-08T02:03:22.177Z,28.03
2018-02-08T02:05:53.737Z,23.33
2018-02-08T02:08:24.125Z,29.87
2018-02-08T02:10:55.509Z,35.20
2018-02-08T02:13:26.006Z,22.30
2018-02-08T02:15:56.546Z,26.17
2018-02-08T02:18:27.305Z,18.43
2018-02-08T02:20:57.922Z,16.40
2018-02-08T02:23:29.386Z,20.93
2018-02-08T02:25:59.927Z,26.03
2018-02-08T02:28:30.406Z,30.03
2018-02-08T02:31:01.665Z,29.07
2018-02-08T02:33:32.167Z,18.33
2018-02-08T02:36:04.601Z,23.20
2018-02-08T02:38:34.990Z,32.60
2018-02-08T02:41:05.377Z,24.57
2018-02-08T02:43:35.847Z,28.27
2018-02-08T02:46:06.293Z,22.00
2018-02-08T02:48:37.843Z,17.40
2018-02-08T02:51:08.281Z,16.90
2018-02-08T02:53:41.428Z,17.50
2018-02-08T02:56:11.909Z,27.60
2018-02-08T02:58:42.529Z,20.10
2018-02-08T03:01:13.164Z,19.53
2018-02-08T03:03:43.658Z,21.40
2018-02-08T03:06:14.581Z,24.60
2018-02-08T03:08:45.921Z,25.73
2018-02-08T03:11:17.214Z,30.30
2018-02-08T03:13:47.783Z,23.90
2018-02-08T03:16:18.301Z,26.73
2018-02-08T03:18:49.947Z,30.70
2018-02-08T03:21:20.405Z,20.27
2018-02-08T03:23:52.782Z,20.83
2018-02-08T03:26:24.052Z,28.23
2018-02-08T03:29:01.309Z,33.70
2018-02-08T03:31:34.271Z,27.93
2018-02-08T03:34:04.758Z,21.27
2018-02-08T03:36:35.294Z,26.17
2018-02-08T03:39:06.038Z,29.37
2018-02-08T03:41:36.517Z,21.40
2018-02-08T03:44:07.803Z,28.73
2018-02-08T03:46:38.302Z,29.00
2018-02-08T03:49:09.960Z,27.00
2018-02-08T03:51:40.490Z,26.90
2018-02-08T03:54:11.585Z,27.83
2018-02-08T03:56:42.057Z,28.27
2018-02-08T03:59:12.642Z,26.40
2018-02-08T04:01:43.162Z,22.23
2018-02-08T04:04:13.678Z,38.23
2018-02-08T04:06:44.646Z,32.13
2018-02-08T04:09:15.041Z,24.70
2018-02-08T04:11:45.601Z,26.20
2018-02-08T04:14:16.079Z,22.50
2018-02-08T04:16:46.752Z,24.03
2018-02-08T04:19:17.741Z,20.83
2018-02-08T04:21:48.278Z,27.20
2018-02-08T04:24:19.682Z,24.73
2018-02-08T04:26:50.189Z,23.10
2018-02-08T04:29:20.660Z,20.47
2018-02-08T04:31:52.875Z,25.87
2018-02-08T04:34:23.379Z,27.23
2018-02-08T04:36:53.956Z,24.73
2018-02-08T04:39:34.966Z,29.83
2018-02-08T04:42:16.794Z,39.23
2018-02-08T04:44:58.013Z,22.37
2018-02-08T04:48:00.726Z,21.47
2018-02-08T04:50:33.070Z,31.17
2018-02-08T04:53:03.439Z,22.33
2018-02-08T04:55:34.740Z,30.93
2018-02-08T04:58:05.154Z,27.90
2018-02-08T05:00:36.545Z,26.53
2018-02-08T05:03:08.193Z,21.50
2018-02-08T05:05:39.381Z,31.10
2018-02-08T05:08:10.398Z,28.90
2018-02-08T05:10:41.609Z,23.87
2018-02-08T05:13:12.745Z,21.90
2018-02-08T05:15:43.653Z,25.07
2018-02-08T05:18:14.069Z,38.47
2018-02-08T05:20:45.549Z,28.30
2018-02-08T05:23:16.101Z,23.20
2018-02-08T05:25:47.501Z,20.60
2018-02-08T05:28:17.854Z,18.37
2018-02-08T05:30:48.271Z,20.80
2018-02-08T05:33:19.204Z,30.60
2018-02-08T05:35:50.258Z,28.43
2018-02-08T05:38:20.630Z,27.23
2018-02-08T05:40:51.027Z,26.40
2018-02-08T05:43:23.170Z,19.77
2018-02-08T05:45:54.600Z,23.17
2018-02-08T05:48:26.593Z,25.00
2018-02-08T05:50:59.598Z,26.63
2018-02-08T05:53:31.902Z,22.03
2018-02-08T05:56:02.895Z,27.10
2018-02-08T05:58:33.335Z,23.77
2018-02-08T06:01:04.479Z,27.17
2018-02-08T06:03:36.131Z,32.30
2018-02-08T06:06:07.301Z,39.67
2018-02-08T06:08:37.674Z,22.80
2018-02-08T06:11:08.050Z,29.20
2018-02-08T06:13:38.466Z,30.97
2018-02-08T06:16:10.097Z,20.70
2018-02-08T06:18:40.455Z,28.93
2018-02-08T06:21:11.133Z,25.63
2018-02-08T06:23:41.548Z,23.47
2018-02-08T06:26:12.001Z,20.20
2018-02-08T06:28:42.420Z,23.00
2018-02-08T06:31:12.802Z,20.53
2018-02-08T06:33:44.530Z,22.27
2018-02-08T06:36:15.629Z,23.30
2018-02-08T06:38:46.021Z,21.03
2018-02-08T06:41:16.432Z,20.60
2018-02-08T06:43:47.582Z,17.63
2018-02-08T06:46:17.991Z,23.07
2018-02-08T06:48:49.162Z,15.87
2018-02-08T06:51:20.001Z,21.40
2018-02-08T06:53:50.398Z,25.47
2018-02-08T06:56:21.559Z,17.27
2018-02-08T06:58:52.027Z,22.50
2018-02-08T07:01:22.444Z,29.03
2018-02-08T07:03:53.922Z,21.30
2018-02-08T07:06:24.439Z,24.17
2018-02-08T07:08:55.130Z,23.33
2018-02-08T07:11:25.654Z,21.50
2018-02-08T07:13:56.145Z,24.63
2018-02-08T07:16:26.591Z,22.73
2018-02-08T07:18:57.782Z,25.60
2018-02-08T07:21:29.626Z,23.37
2018-02-08T07:24:00.085Z,22.37
2018-02-08T07:26:30.558Z,17.93
2018-02-08T07:29:01.780Z,18.80
2018-02-08T07:31:32.222Z,24.77
2018-02-08T07:34:04.437Z,20.53
2018-02-08T07:36:34.890Z,21.87
2018-02-08T07:39:06.279Z,21.10
2018-02-08T07:41:37.455Z,19.37
2018-02-08T07:44:12.185Z,20.17
2018-02-08T07:46:43.356Z,18.97
2018-02-08T07:49:13.818Z,18.47
2018-02-08T07:51:45.826Z,19.67
2018-02-08T07:54:16.263Z,19.73
2018-02-08T07:56:46.787Z,18.93
2018-02-08T07:59:17.198Z,17.63
2018-02-08T08:01:47.625Z,31.37
2018-02-08T08:04:18.632Z,20.67
2018-02-08T08:06:49.193Z,17.37
2018-02-08T08:09:20.182Z,24.17
2018-02-08T08:11:51.473Z,13.97
2018-02-08T08:14:22.008Z,24.33
2018-02-08T08:16:53.938Z,15.17
2018-02-08T08:19:24.637Z,19.47
2018-02-08T08:21:55.258Z,25.17
2018-02-08T08:24:25.826Z,20.00
2018-02-08T08:26:57.097Z,24.03
2018-02-08T08:29:27.593Z,20.60
2018-02-08T08:31:58.969Z,16.00
2018-02-08T08:34:30.016Z,32.23
2018-02-08T08:37:00.481Z,17.70
2018-02-08T08:39:31.382Z,20.10
2018-02-08T08:42:01.850Z,13.90
2018-02-08T08:44:33.032Z,23.60
2018-02-08T08:47:03.477Z,14.70
2018-02-08T08:49:33.993Z,24.90
2018-02-08T08:52:05.519Z,23.93
2018-02-08T08:54:36.805Z,17.27
2018-02-08T08:57:07.270Z,16.03
2018-02-08T08:59:37.825Z,15.67
2018-02-08T09:02:09.103Z,25.50
2018-02-08T09:04:39.638Z,23.50
2018-02-08T09:07:10.169Z,17.53
2018-02-08T09:09:40.637Z,28.67
2018-02-08T09:12:11.482Z,14.43
2018-02-08T09:14:41.980Z,14.63
2018-02-08T09:17:12.545Z,16.93
2018-02-08T09:19:43.786Z,23.20
2018-02-08T09:22:15.838Z,16.43
2018-02-08T09:24:46.374Z,21.40
2018-02-08T09:27:17.900Z,16.43
2018-02-08T09:29:48.424Z,12.10
2018-02-08T09:32:18.951Z,24.80
2018-02-08T09:34:50.150Z,20.67
2018-02-08T09:37:21.466Z,25.33
2018-02-08T09:39:53.018Z,18.30
2018-02-08T09:42:23.471Z,13.57
2018-02-08T09:44:54.763Z,23.67
2018-02-08T09:47:25.290Z,21.17
2018-02-08T09:49:57.052Z,19.00
2018-02-08T09:52:27.879Z,17.03
2018-02-08T09:54:59.606Z,16.73
2018-02-08T09:57:31.357Z,15.97
2018-02-08T10:00:02.615Z,16.00
2018-02-08T10:02:33.150Z,17.83
2018-02-08T10:05:04.249Z,21.30
2018-02-08T10:07:34.741Z,19.20
2018-02-08T10:10:06.530Z,18.60
2018-02-08T10:12:37.078Z,14.87
2018-02-08T10:15:07.520Z,24.73
2018-02-08T10:17:39.801Z,15.93
2018-02-08T10:20:11.194Z,20.33
2018-02-08T10:22:42.658Z,14.93
2018-02-08T10:25:13.126Z,16.60
2018-02-08T10:27:44.753Z,14.23
2018-02-08T10:30:15.972Z,10.87
2018-02-08T10:32:46.485Z,14.97
2018-02-08T10:35:16.970Z,25.00
2018-02-08T10:37:49.176Z,17.17
2018-02-08T10:40:20.160Z,18.53
2018-02-08T10:42:50.712Z,28.97
2018-02-08T10:45:22.009Z,16.63
2018-02-08T10:47:52.558Z,19.47
2018-02-08T10:50:24.217Z,16.20
2018-02-08T10:52:54.997Z,14.23
2018-02-08T10:55:26.230Z,15.10
2018-02-08T10:57:57.960Z,16.10
2018-02-08T11:00:29.038Z,17.87
2018-02-08T11:03:00.087Z,13.33
2018-02-08T11:05:31.504Z,19.33
2018-02-08T11:08:04.309Z,17.60
2018-02-08T11:10:36.056Z,19.80
2018-02-08T11:13:07.453Z,13.90
2018-02-08T11:15:38.053Z,21.50
2018-02-08T11:18:08.565Z,22.97
2018-02-08T11:20:39.739Z,17.57
2018-02-08T11:23:10.479Z,11.17
2018-02-08T11:25:40.960Z,15.73
2018-02-08T11:28:12.591Z,15.30
2018-02-08T11:30:43.089Z,13.73
2018-02-08T11:33:13.694Z,17.40
2018-02-08T11:35:44.434Z,24.43
2018-02-08T11:38:15.020Z,11.57
2018-02-08T11:40:46.093Z,16.73
2018-02-08T11:43:18.017Z,19.53
2018-02-08T11:45:49.182Z,17.40
2018-02-08T11:48:20.441Z,20.50
2018-02-08T11:50:51.701Z,17.90
2018-02-08T11:53:23.161Z,19.30
2018-02-08T11:55:53.552Z,14.67
2018-02-08T11:58:26.334Z,19.03
2018-02-08T12:00:58.124Z,20.17
2018-02-08T12:03:28.668Z,13.67
2018-02-08T12:05:59.182Z,14.83
2018-02-08T12:08:29.683Z,20.73
2018-02-08T12:11:01.585Z,16.73
2018-02-08T12:13:32.607Z,17.63
2018-02-08T12:16:03.219Z,12.33
2018-02-08T12:18:34.587Z,13.90
2018-02-08T12:21:06.649Z,13.27
2018-02-08T12:23:37.694Z,13.80
2018-02-08T12:26:08.698Z,16.57
2018-02-08T12:28:40.461Z,16.93
2018-02-08T12:31:12.922Z,19.60
2018-02-08T12:33:44.846Z,22.57
2018-02-08T12:36:15.360Z,12.33
2018-02-08T12:38:45.857Z,15.50
2018-02-08T12:41:18.578Z,26.20
2018-02-08T12:43:49.349Z,19.53
2018-02-08T12:46:21.410Z,16.13
2018-02-08T12:48:52.274Z,12.30
2018-02-08T12:53:59.078Z,11.30
2018-02-08T12:56:30.413Z,18.83
2018-02-08T12:59:02.034Z,15.80
2018-02-08T13:01:32.518Z,17.13
2018-02-08T13:04:03.015Z,11.97
2018-02-08T13:06:34.514Z,18.40
2018-02-08T13:09:06.313Z,15.13
2018-02-08T13:11:37.529Z,23.20
2018-02-08T13:14:08.261Z,16.63
2018-02-08T13:16:38.990Z,17.10
2018-02-08T13:19:10.873Z,15.00
2018-02-08T13:21:43.071Z,22.23
2018-02-08T13:24:14.590Z,19.50
2018-02-08T13:26:45.037Z,19.17
2018-02-08T13:29:16.700Z,20.80
2018-02-08T13:31:51.268Z,19.63
2018-02-08T13:34:21.864Z,21.20
2018-02-08T13:36:54.490Z,19.17
2018-02-08T13:39:25.329Z,20.70
2018-02-08T13:41:56.442Z,24.20
2018-02-08T13:44:26.939Z,18.07
2018-02-08T13:46:57.925Z,21.83
2018-02-08T13:49:29.877Z,20.87
2018-02-08T13:52:06.281Z,23.00
2018-02-08T13:54:45.287Z,36.80
2018-02-08T13:57:21.111Z,27.97
2018-02-08T14:00:05.485Z,28.23
2018-02-08T14:02:36.378Z,29.27
2018-02-08T14:05:07.812Z,36.40
2018-02-08T14:07:39.538Z,33.63
2018-02-08T14:10:10.392Z,33.90
2018-02-08T14:12:41.060Z,31.37
2018-02-08T14:15:12.629Z,34.53
2018-02-08T14:17:44.173Z,35.13
2018-02-08T14:20:15.940Z,35.77
2018-02-08T14:22:46.813Z,34.67
2018-02-08T14:25:18.762Z,33.23
2018-02-08T14:27:50.041Z,34.83
2018-02-08T14:30:21.760Z,29.33
2018-02-08T14:32:52.561Z,36.10
2018-02-08T14:35:24.567Z,32.67
2018-02-08T14:37:57.904Z,35.00
2018-02-08T14:40:28.944Z,34.10
2018-02-08T14:43:00.385Z,32.70
2018-02-08T14:45:31.409Z,33.57
2018-02-08T14:48:02.418Z,29.23
2018-02-08T14:50:34.122Z,29.57
2018-02-08T14:53:04.841Z,38.30
2018-02-08T14:55:36.655Z,41.97
2018-02-08T14:58:07.614Z,36.97
2018-02-08T15:00:38.277Z,36.77
2018-02-08T15:03:09.657Z,40.40
2018-02-08T15:05:42.221Z,31.17
2018-02-08T15:08:14.173Z,36.77
2018-02-08T15:10:46.721Z,36.20
2018-02-08T15:13:17.692Z,39.60
2018-02-08T15:15:48.434Z,38.53
2018-02-08T15:18:19.179Z,35.00
2018-02-08T15:20:51.582Z,35.37
2018-02-08T15:23:22.844Z,33.07
2018-02-08T15:25:54.554Z,35.00
2018-02-08T15:28:26.405Z,32.07
2018-02-08T15:30:57.200Z,34.50
2018-02-08T15:33:28.123Z,32.10
2018-02-08T15:35:59.105Z,38.40
2018-02-08T15:38:30.179Z,29.90
2018-02-08T15:41:01.582Z,32.87
2018-02-08T15:43:34.123Z,34.83
2018-02-08T15:46:04.936Z,35.37
2018-02-08T15:48:37.058Z,38.73
2018-02-08T15:51:09.005Z,32.00
2018-02-08T15:53:40.527Z,30.90
2018-02-08T15:56:11.455Z,32.40
2018-02-08T15:58:43.831Z,33.67
2018-02-08T16:01:15.368Z,26.93
2018-02-08T16:03:47.035Z,27.17
2018-02-08T16:06:19.862Z,40.20
2018-02-08T16:08:51.421Z,27.23
2018-02-08T16:11:22.009Z,34.90
2018-02-08T16:13:52.917Z,34.57
2018-02-08T16:16:23.757Z,34.33
2018-02-08T16:18:55.541Z,31.33
2018-02-08T16:21:26.230Z,32.87
2018-02-08T16:23:56.799Z,31.23
2018-02-08T16:26:30.339Z,36.63
2018-02-08T16:29:02.678Z,31.57
2018-02-08T16:31:34.601Z,28.40
2018-02-08T16:34:05.434Z,31.37
2018-02-08T16:36:36.179Z,34.47
2018-02-08T16:39:08.866Z,35.33
2018-02-08T16:41:40.239Z,39.90
2018-02-08T16:44:11.053Z,27.37
2018-02-08T16:46:42.382Z,39.47
2018-02-08T16:49:12.940Z,37.53
2018-02-08T16:51:45.257Z,29.40
2018-02-08T16:54:15.826Z,29.83
2018-02-08T16:56:47.738Z,30.67
2018-02-08T16:59:18.426Z,34.73
2018-02-08T17:01:49.831Z,25.93
2018-02-08T17:04:20.446Z,33.50
2018-02-08T17:06:52.046Z,35.13
2018-02-08T17:09:23.825Z,27.17
2018-02-08T17:11:55.112Z,31.30
2018-02-08T17:14:25.632Z,29.57
2018-02-08T17:16:57.192Z,27.10
2018-02-08T17:19:27.718Z,30.40
2018-02-08T17:21:59.038Z,25.27
2018-02-08T17:24:29.567Z,32.20
2018-02-08T17:27:00.486Z,22.77
2018-02-08T17:29:31.590Z,31.27
2018-02-08T17:32:02.422Z,32.70
2018-02-08T17:34:33.038Z,36.73
2018-02-08T17:37:04.538Z,36.07
2018-02-08T17:39:35.471Z,29.87
2018-02-08T17:42:06.776Z,26.00
2018-02-08T17:44:37.980Z,32.13
2018-02-08T17:47:09.291Z,32.53
2018-02-08T17:49:39.773Z,28.57
2018-02-08T17:52:10.282Z,28.30
2018-02-08T17:54:41.575Z,28.70
2018-02-08T17:57:12.272Z,32.13
2018-02-08T17:59:43.565Z,32.00
2018-02-08T18:02:14.085Z,31.30
2018-02-08T18:04:44.673Z,32.83
2018-02-08T18:07:15.910Z,32.93
2018-02-08T18:09:47.728Z,30.67
2018-02-08T18:12:18.206Z,38.53
2018-02-08T18:14:50.670Z,31.60
2018-02-08T18:17:22.009Z,25.93
2018-02-08T18:19:53.363Z,29.13
2018-02-08T18:22:24.625Z,42.40
2018-02-08T18:24:56.198Z,27.43
2018-02-08T18:27:28.751Z,30.60
2018-02-08T18:30:00.045Z,29.50
2018-02-08T18:32:30.540Z,24.80
2018-02-08T18:35:01.070Z,30.73
2018-02-08T18:37:32.833Z,35.37
2018-02-08T18:40:04.545Z,30.10
2018-02-08T18:42:36.673Z,43.23
2018-02-08T18:45:07.746Z,26.40
2018-02-08T18:47:38.854Z,36.43
2018-02-08T18:50:09.383Z,32.47
2018-02-08T18:52:39.853Z,28.07
2018-02-08T18:55:10.365Z,24.60
2018-02-08T18:57:42.166Z,24.77
2018-02-08T19:00:12.717Z,27.50
2018-02-08T19:02:43.454Z,29.57
2018-02-08T19:05:13.979Z,29.80
2018-02-08T19:07:44.476Z,27.20
2018-02-08T19:10:16.830Z,36.97
2018-02-08T19:12:47.346Z,30.40
2018-02-08T19:15:18.853Z,32.87
2018-02-08T19:17:49.363Z,25.63
2018-02-08T19:20:20.658Z,30.30
2018-02-08T19:22:51.163Z,25.43
2018-02-08T19:25:21.658Z,33.30
2018-02-08T19:27:53.942Z,29.70
2018-02-08T19:30:24.422Z,30.67
2018-02-08T19:32:54.922Z,31.83
2018-02-08T19:35:25.437Z,38.53
2018-02-08T19:37:55.960Z,31.57
2018-02-08T19:40:26.694Z,28.10
2018-02-08T19:42:58.020Z,36.80
2018-02-08T19:45:30.456Z,32.13
2018-02-08T19:48:00.956Z,29.93
2018-02-08T19:50:31.813Z,38.40
2018-02-08T19:53:03.323Z,34.03
2018-02-08T19:55:34.537Z,30.23
2018-02-08T19:58:05.387Z,38.80
2018-02-08T20:00:36.641Z,29.00
2018-02-08T20:03:08.208Z,43.10
2018-02-08T20:05:38.706Z,31.37
2018-02-08T20:08:09.230Z,38.87
2018-02-08T20:10:40.479Z,32.00
2018-02-08T20:13:10.996Z,30.60
2018-02-08T20:15:41.654Z,29.60
2018-02-08T20:18:12.813Z,28.73
2018-02-08T20:20:43.956Z,32.03
2018-02-08T20:23:14.319Z,27.53
2018-02-08T20:25:45.027Z,34.33
2018-02-08T20:28:15.617Z,22.97
2018-02-08T20:30:51.012Z,28.43
2018-02-08T20:33:21.429Z,38.50
2018-02-08T20:35:51.910Z,32.03
2018-02-08T20:38:22.293Z,26.37
2018-02-08T20:40:52.733Z,32.77
2018-02-08T20:43:28.265Z,25.67
2018-02-08T20:46:00.040Z,36.20
2018-02-08T20:48:31.646Z,36.07
2018-02-08T20:51:03.125Z,34.80
2018-02-08T20:53:33.650Z,24.03
2018-02-08T20:56:04.053Z,35.90
2018-02-08T20:58:36.961Z,36.60
2018-02-08T21:01:07.461Z,30.40
2018-02-08T21:03:38.658Z,29.23
2018-02-08T21:06:09.046Z,39.60
2018-02-08T21:08:39.478Z,29.00
2018-02-08T21:11:09.874Z,35.50
2018-02-08T21:13:41.140Z,28.00
2018-02-08T21:16:12.020Z,32.73
2018-02-08T21:18:42.411Z,33.90
2018-02-08T21:21:12.838Z,29.07
2018-02-08T21:23:43.177Z,36.80
2018-02-08T21:26:13.605Z,37.17
2018-02-08T21:28:44.946Z,26.60
2018-02-08T21:31:15.304Z,28.70
2018-02-08T21:33:46.956Z,36.57
2018-02-08T21:36:17.378Z,54.23
2018-02-08T21:38:48.588Z,27.57
2018-02-08T21:41:19.110Z,28.03
2018-02-08T21:43:49.942Z,34.10
2018-02-08T21:46:20.699Z,35.50
2018-02-08T21:48:51.149Z,29.30
2018-02-08T21:51:21.590Z,39.73
2018-02-08T21:53:52.098Z,32.47
2018-02-08T21:56:22.606Z,30.20
2018-02-08T21:58:53.956Z,32.10
2018-02-08T22:01:24.449Z,29.30
2018-02-08T22:03:56.140Z,29.17
2018-02-08T22:06:26.586Z,34.70
2018-02-08T22:08:57.060Z,27.57
2018-02-08T22:11:28.317Z,32.80
2018-02-08T22:13:59.758Z,34.37
2018-02-08T22:16:32.037Z,35.70
2018-02-08T22:19:03.935Z,34.43
2018-02-08T22:21:34.385Z,38.73
2018-02-08T22:24:05.114Z,29.43
2018-02-08T22:26:35.470Z,31.17
2018-02-08T22:29:06.666Z,31.63
2018-02-08T22:31:37.097Z,33.20
2018-02-08T22:34:08.724Z,34.70
2018-02-08T22:36:39.119Z,30.00
2018-02-08T22:39:10.308Z,31.27
2018-02-08T22:41:40.674Z,33.10
2018-02-08T22:44:11.107Z,36.43
2018-02-08T22:46:42.650Z,27.53
2018-02-08T22:49:13.057Z,39.37
2018-02-08T22:51:43.854Z,34.77
2018-02-08T22:54:14.423Z,33.47
2018-02-08T22:56:44.884Z,33.63
2018-02-08T22:59:16.108Z,32.40
2018-02-08T23:01:46.564Z,31.47
2018-02-08T23:04:18.023Z,36.33
2018-02-08T23:06:48.467Z,40.77
2018-02-08T23:09:18.889Z,34.07
2018-02-08T23:11:49.322Z,42.80
2018-02-08T23:14:19.774Z,34.03
2018-02-08T23:16:50.174Z,38.83
2018-02-08T23:19:20.569Z,33.17
2018-02-08T23:21:52.665Z,38.70
2018-02-08T23:24:23.057Z,41.53
2018-02-08T23:26:54.242Z,41.00
2018-02-08T23:29:24.738Z,31.23
2018-02-08T23:31:56.830Z,36.80
2018-02-08T23:34:27.450Z,28.63
2018-02-08T23:36:57.933Z,37.37
2018-02-08T23:39:29.212Z,37.67
2018-02-08T23:41:59.597Z,32.13
2018-02-08T23:44:30.003Z,34.63
2018-02-08T23:47:00.993Z,32.83
2018-02-08T23:49:32.205Z,36.20
2018-02-08T23:52:04.337Z,40.17
2018-02-08T23:54:34.799Z,42.10
2018-02-08T23:57:05.294Z,45.73
2018-02-08T23:59:35.765Z,32.73
